createdAt,value
2023-06-19T00:00:31.461Z,21.38
2023-06-19T00:02:58.124Z,21.38
2023-06-19T00:05:25.975Z,21.36
2023-06-19T00:07:52.760Z,21.35
2023-06-19T00:10:19.339Z,21.35
2023-06-19T00:12:46.023Z,21.35
2023-06-19T00:15:12.763Z,21.35
2023-06-19T00:17:39.585Z,21.36
2023-06-19T00:20:06.820Z,21.36
2023-06-19T00:22:33.471Z,21.37
2023-06-19T00:25:00.475Z,21.37
2023-06-19T00:27:27.465Z,21.38
2023-06-19T00:29:54.298Z,21.37
2023-06-19T00:32:21.342Z,21.38
2023-06-19T00:34:47.936Z,21.39
2023-06-19T00:37:14.527Z,21.38
2023-06-19T00:39:45.138Z,21.38
2023-06-19T00:42:12.000Z,21.34
2023-06-19T00:44:38.499Z,21.30
2023-06-19T00:47:05.524Z,21.29
2023-06-19T00:49:32.773Z,21.25
2023-06-19T00:51:59.543Z,21.21
2023-06-19T00:54:26.637Z,21.18
2023-06-19T00:56:54.857Z,21.17
2023-06-19T00:59:21.618Z,21.15
2023-06-19T01:01:48.207Z,21.11
2023-06-19T01:04:15.260Z,21.05
2023-06-19T01:06:59.528Z,21.00
2023-06-19T01:09:37.524Z,20.96
2023-06-19T01:12:17.492Z,20.91
2023-06-19T01:15:03.089Z,20.85
2023-06-19T01:17:30.759Z,20.80
2023-06-19T01:19:58.520Z,20.77
2023-06-19T01:22:32.271Z,20.71
2023-06-19T01:24:59.514Z,20.64
2023-06-19T01:27:30.730Z,20.58
2023-06-19T01:29:58.280Z,20.56
2023-06-19T01:32:54.072Z,20.51
2023-06-19T01:35:26.188Z,20.44
2023-06-19T01:37:53.701Z,20.37
2023-06-19T01:40:22.973Z,20.32
2023-06-19T01:42:50.126Z,20.27
2023-06-19T01:45:16.596Z,20.22
2023-06-19T01:47:43.199Z,20.17
2023-06-19T01:50:12.098Z,20.12
2023-06-19T01:52:39.953Z,20.07
2023-06-19T01:55:06.982Z,19.99
2023-06-19T01:57:35.386Z,19.96
2023-06-19T02:00:01.863Z,19.91
2023-06-19T02:02:28.394Z,19.90
2023-06-19T02:04:54.816Z,19.89
2023-06-19T02:07:21.284Z,19.86
2023-06-19T02:09:49.665Z,19.84
2023-06-19T02:12:16.145Z,19.81
2023-06-19T02:14:42.827Z,19.77
2023-06-19T02:17:09.265Z,19.73
2023-06-19T02:19:35.789Z,19.72
2023-06-19T02:22:02.284Z,19.72
2023-06-19T02:24:28.802Z,19.72
2023-06-19T02:26:55.377Z,19.73
2023-06-19T02:29:23.288Z,19.75
2023-06-19T02:31:50.688Z,19.74
2023-06-19T02:34:18.008Z,19.75
2023-06-19T02:36:48.252Z,19.76
2023-06-19T02:39:14.744Z,19.76
2023-06-19T02:41:44.172Z,19.75
2023-06-19T02:44:10.598Z,19.78
2023-06-19T02:46:37.097Z,19.77
2023-06-19T02:49:03.574Z,19.77
2023-06-19T02:51:30.021Z,19.76
2023-06-19T02:53:56.485Z,19.76
2023-06-19T02:56:23.391Z,19.74
2023-06-19T02:58:49.888Z,19.76
2023-06-19T03:01:16.411Z,19.76
2023-06-19T03:03:47.602Z,19.75
2023-06-19T03:06:16.731Z,19.74
2023-06-19T03:08:43.876Z,19.74
2023-06-19T03:11:10.378Z,19.72
2023-06-19T03:13:48.048Z,19.73
2023-06-19T03:16:15.677Z,19.73
2023-06-19T03:18:45.647Z,19.70
2023-06-19T03:21:13.278Z,19.71
2023-06-19T03:23:40.100Z,19.69
2023-06-19T03:26:06.569Z,19.68
2023-06-19T03:28:33.357Z,19.67
2023-06-19T03:31:01.644Z,19.67
2023-06-19T03:33:28.151Z,19.68
2023-06-19T03:35:54.994Z,19.66
2023-06-19T03:38:40.123Z,19.67
2023-06-19T03:41:08.452Z,19.67
2023-06-19T03:43:34.907Z,19.65
2023-06-19T03:46:01.404Z,19.64
2023-06-19T03:48:28.318Z,19.64
2023-06-19T03:50:56.252Z,19.64
2023-06-19T03:53:23.106Z,19.61
2023-06-19T03:55:49.638Z,19.60
2023-06-19T03:58:16.131Z,19.56
2023-06-19T04:00:42.667Z,19.53
2023-06-19T04:03:10.608Z,19.52
2023-06-19T04:05:37.223Z,19.48
2023-06-19T04:08:05.120Z,19.43
2023-06-19T04:10:32.955Z,19.40
2023-06-19T04:13:00.651Z,19.39
2023-06-19T04:15:27.248Z,19.35
2023-06-19T04:17:54.383Z,19.32
2023-06-19T04:20:21.081Z,19.28
2023-06-19T04:22:47.930Z,19.26
2023-06-19T04:25:14.706Z,19.21
2023-06-19T04:27:41.412Z,19.20
2023-06-19T04:30:08.492Z,19.16
2023-06-19T04:32:42.026Z,19.15
2023-06-19T04:35:10.201Z,19.14
2023-06-19T04:37:36.953Z,19.13
2023-06-19T04:40:04.666Z,19.09
2023-06-19T04:42:31.253Z,19.05
2023-06-19T04:45:00.480Z,19.02
2023-06-19T04:47:33.368Z,18.97
2023-06-19T04:50:03.039Z,18.92
2023-06-19T04:52:29.521Z,18.92
2023-06-19T04:54:56.005Z,18.90
2023-06-19T04:57:22.684Z,18.89
2023-06-19T04:59:49.153Z,18.89
2023-06-19T05:02:15.700Z,18.91
2023-06-19T05:04:44.027Z,18.93
2023-06-19T05:07:12.134Z,18.96
2023-06-19T05:09:38.668Z,19.02
2023-06-19T05:12:05.630Z,19.08
2023-06-19T05:14:32.063Z,19.14
2023-06-19T05:16:58.671Z,19.19
2023-06-19T05:19:25.102Z,19.21
2023-06-19T05:21:51.562Z,19.27
2023-06-19T05:24:18.490Z,19.27
2023-06-19T05:26:45.006Z,19.27
2023-06-19T05:29:12.150Z,19.29
2023-06-19T05:31:38.685Z,19.34
2023-06-19T05:34:05.548Z,19.33
2023-06-19T05:36:32.027Z,19.31
2023-06-19T05:38:58.511Z,19.27
2023-06-19T05:41:24.966Z,19.25
2023-06-19T05:43:51.531Z,19.22
2023-06-19T05:46:18.093Z,19.20
2023-06-19T05:48:44.564Z,19.16
2023-06-19T05:51:11.025Z,19.14
2023-06-19T05:53:37.954Z,19.09
2023-06-19T05:56:04.561Z,19.10
2023-06-19T05:58:30.978Z,19.18
2023-06-19T06:00:59.051Z,19.23
2023-06-19T06:03:26.429Z,19.29
2023-06-19T06:05:52.905Z,19.27
2023-06-19T06:08:19.346Z,19.33
2023-06-19T06:10:45.996Z,19.31
2023-06-19T06:13:12.405Z,19.27
2023-06-19T06:15:38.987Z,19.30
2023-06-19T06:18:05.448Z,19.34
2023-06-19T06:20:31.942Z,19.34
2023-06-19T06:22:58.442Z,19.31
2023-06-19T06:25:24.868Z,19.28
2023-06-19T06:27:51.308Z,19.36
2023-06-19T06:30:20.308Z,19.61
2023-06-19T06:32:47.081Z,19.91
2023-06-19T06:35:13.848Z,20.04
2023-06-19T06:37:41.122Z,20.16
2023-06-19T06:40:12.177Z,20.45
2023-06-19T06:42:40.216Z,20.60
2023-06-19T06:45:08.209Z,20.81
2023-06-19T06:47:35.880Z,21.34
2023-06-19T06:50:02.459Z,21.42
2023-06-19T06:52:29.121Z,21.31
2023-06-19T06:54:55.625Z,21.11
2023-06-19T06:57:22.093Z,20.94
2023-06-19T06:59:48.591Z,20.90
2023-06-19T07:02:15.064Z,20.77
2023-06-19T07:04:41.622Z,20.60
2023-06-19T07:07:09.703Z,20.59
2023-06-19T07:09:36.236Z,20.69
2023-06-19T07:12:05.339Z,20.78
2023-06-19T07:14:31.943Z,20.72
2023-06-19T07:16:58.486Z,20.58
2023-06-19T07:19:25.044Z,20.59
2023-06-19T07:21:52.607Z,20.59
2023-06-19T07:24:19.272Z,20.68
2023-06-19T07:26:48.008Z,20.68
2023-06-19T07:29:14.542Z,20.58
2023-06-19T07:31:43.681Z,20.48
2023-06-19T07:34:10.214Z,20.36
2023-06-19T07:36:36.691Z,20.26
2023-06-19T07:39:03.644Z,20.25
2023-06-19T07:41:30.120Z,20.35
2023-06-19T07:43:56.731Z,20.33
2023-06-19T07:46:23.267Z,20.31
2023-06-19T07:48:49.865Z,20.22
2023-06-19T07:51:16.385Z,20.36
2023-06-19T07:53:44.369Z,20.54
2023-06-19T07:56:11.247Z,20.61
2023-06-19T07:58:37.793Z,20.83
2023-06-19T08:01:04.227Z,20.87
2023-06-19T08:03:31.744Z,20.76
2023-06-19T08:05:58.311Z,20.88
2023-06-19T08:08:24.809Z,20.91
2023-06-19T08:10:51.328Z,20.97
2023-06-19T08:13:17.919Z,21.11
2023-06-19T08:15:46.308Z,21.30
2023-06-19T08:18:12.979Z,21.31
2023-06-19T08:20:39.589Z,21.44
2023-06-19T08:23:06.889Z,21.42
2023-06-19T08:25:33.562Z,21.45
2023-06-19T08:27:59.983Z,21.55
2023-06-19T08:30:27.234Z,21.97
2023-06-19T08:32:54.228Z,21.94
2023-06-19T08:35:20.712Z,22.03
2023-06-19T08:37:47.217Z,22.14
2023-06-19T08:40:13.745Z,22.19
2023-06-19T08:42:40.886Z,22.20
2023-06-19T08:45:08.319Z,22.08
2023-06-19T08:47:35.983Z,22.06
2023-06-19T08:50:03.201Z,22.07
2023-06-19T08:52:29.871Z,21.92
2023-06-19T08:54:56.330Z,22.06
2023-06-19T08:57:22.838Z,22.10
2023-06-19T08:59:50.955Z,22.00
2023-06-19T09:02:17.977Z,22.23
2023-06-19T09:04:44.550Z,22.21
2023-06-19T09:07:14.237Z,22.29
2023-06-19T09:09:50.034Z,22.43
2023-06-19T09:12:16.946Z,22.38
2023-06-19T09:14:48.480Z,22.41
2023-06-19T09:17:22.662Z,22.36
2023-06-19T09:19:53.729Z,22.53
2023-06-19T09:22:22.865Z,22.69
2023-06-19T09:24:49.876Z,22.76
2023-06-19T09:27:21.833Z,22.71
2023-06-19T09:29:50.809Z,22.63
2023-06-19T09:32:17.323Z,22.59
2023-06-19T09:34:46.144Z,22.69
2023-06-19T09:37:12.886Z,22.88
2023-06-19T09:39:40.525Z,22.88
2023-06-19T09:42:10.145Z,22.75
2023-06-19T09:44:47.218Z,23.10
2023-06-19T09:47:23.681Z,23.67
2023-06-19T09:49:55.515Z,23.96
2023-06-19T09:52:23.491Z,24.04
2023-06-19T09:54:54.715Z,24.20
2023-06-19T09:57:22.013Z,23.87
2023-06-19T09:59:53.810Z,23.79
2023-06-19T10:02:22.164Z,23.74
2023-06-19T10:04:54.103Z,23.88
2023-06-19T10:07:24.976Z,23.89
2023-06-19T10:10:01.103Z,23.76
2023-06-19T10:12:37.497Z,23.98
2023-06-19T10:15:10.827Z,24.34
2023-06-19T10:17:38.557Z,24.69
2023-06-19T10:20:05.953Z,24.81
2023-06-19T10:22:32.516Z,24.73
2023-06-19T10:24:59.120Z,24.74
2023-06-19T10:27:26.533Z,25.38
2023-06-19T10:30:06.846Z,25.26
2023-06-19T10:32:45.299Z,25.15
2023-06-19T10:35:13.758Z,25.51
2023-06-19T10:37:41.098Z,25.42
2023-06-19T10:40:11.604Z,25.23
2023-06-19T10:42:38.412Z,25.08
2023-06-19T10:45:07.073Z,25.04
2023-06-19T10:47:34.272Z,25.32
2023-06-19T10:50:00.830Z,25.36
2023-06-19T10:52:30.739Z,25.37
2023-06-19T10:54:58.098Z,25.20
2023-06-19T10:57:31.627Z,25.54
2023-06-19T10:59:59.211Z,25.88
2023-06-19T11:02:26.614Z,26.15
2023-06-19T11:04:54.608Z,26.56
2023-06-19T11:07:23.015Z,26.48
2023-06-19T11:09:52.663Z,26.44
2023-06-19T11:12:22.550Z,27.00
2023-06-19T11:14:52.165Z,26.81
2023-06-19T11:17:24.736Z,26.77
2023-06-19T11:19:51.914Z,26.96
2023-06-19T11:22:18.449Z,27.05
2023-06-19T11:24:49.399Z,27.01
2023-06-19T11:27:28.562Z,26.48
2023-06-19T11:29:59.712Z,26.32
2023-06-19T11:32:41.750Z,26.50
2023-06-19T11:35:13.078Z,26.56
2023-06-19T11:37:44.729Z,26.88
2023-06-19T11:40:13.268Z,27.29
2023-06-19T11:42:52.386Z,27.28
2023-06-19T11:45:19.286Z,27.48
2023-06-19T11:47:47.550Z,27.35
2023-06-19T11:50:16.436Z,27.27
2023-06-19T11:52:45.404Z,26.98
2023-06-19T11:55:15.062Z,27.14
2023-06-19T11:57:41.506Z,27.39
2023-06-19T12:00:15.303Z,27.36
2023-06-19T12:02:42.099Z,27.55
2023-06-19T12:05:09.418Z,27.78
2023-06-19T12:07:35.941Z,27.41
2023-06-19T12:10:04.568Z,27.60
2023-06-19T12:12:32.003Z,27.67
2023-06-19T12:14:58.493Z,27.53
2023-06-19T12:17:25.062Z,27.02
2023-06-19T12:19:51.597Z,27.11
2023-06-19T12:22:18.157Z,27.64
2023-06-19T12:24:44.626Z,28.04
2023-06-19T12:27:11.067Z,28.04
2023-06-19T12:29:37.650Z,27.94
2023-06-19T12:32:04.768Z,28.23
2023-06-19T12:34:32.086Z,28.38
2023-06-19T12:36:58.945Z,28.00
2023-06-19T12:39:26.079Z,28.10
2023-06-19T12:41:53.383Z,27.92
2023-06-19T12:44:21.165Z,27.84
2023-06-19T12:46:47.725Z,28.24
2023-06-19T12:49:14.302Z,28.30
2023-06-19T12:51:40.779Z,28.56
2023-06-19T12:54:07.271Z,28.50
2023-06-19T12:56:33.826Z,28.68
2023-06-19T12:59:00.273Z,28.66
2023-06-19T13:01:26.822Z,28.30
2023-06-19T13:03:53.642Z,28.15
2023-06-19T13:06:20.398Z,28.17
2023-06-19T13:08:46.926Z,28.46
2023-06-19T13:11:13.495Z,28.72
2023-06-19T13:13:39.935Z,28.84
2023-06-19T13:16:06.450Z,28.90
2023-06-19T13:18:32.872Z,28.99
2023-06-19T13:20:59.600Z,28.92
2023-06-19T13:23:26.082Z,28.90
2023-06-19T13:25:52.655Z,28.98
2023-06-19T13:28:19.187Z,28.85
2023-06-19T13:30:45.796Z,28.86
2023-06-19T13:33:12.514Z,28.91
2023-06-19T13:35:39.049Z,28.77
2023-06-19T13:38:05.766Z,28.74
2023-06-19T13:40:32.224Z,28.72
2023-06-19T13:42:59.959Z,28.55
2023-06-19T13:45:27.216Z,28.56
2023-06-19T13:47:54.026Z,28.73
2023-06-19T13:50:20.734Z,28.63
2023-06-19T13:52:47.691Z,28.90
2023-06-19T13:55:15.597Z,29.06
2023-06-19T13:57:43.434Z,28.96
2023-06-19T14:00:12.278Z,28.82
2023-06-19T14:02:42.543Z,29.09
2023-06-19T14:05:10.509Z,28.38
2023-06-19T14:07:37.645Z,28.84
2023-06-19T14:10:05.439Z,29.19
2023-06-19T14:12:32.315Z,29.39
2023-06-19T14:14:59.119Z,29.06
2023-06-19T14:17:25.611Z,29.25
2023-06-19T14:19:52.313Z,29.25
2023-06-19T14:22:19.074Z,29.30
2023-06-19T14:24:45.847Z,29.32
2023-06-19T14:27:13.542Z,29.31
2023-06-19T14:29:40.045Z,29.35
2023-06-19T14:32:06.568Z,29.51
2023-06-19T14:34:33.037Z,29.51
2023-06-19T14:36:59.487Z,29.64
2023-06-19T14:39:25.925Z,29.68
2023-06-19T14:41:52.389Z,29.52
2023-06-19T14:44:18.989Z,29.68
2023-06-19T14:46:45.548Z,29.55
2023-06-19T14:49:14.180Z,29.05
2023-06-19T14:51:41.286Z,29.28
2023-06-19T14:54:07.728Z,29.42
2023-06-19T14:56:34.301Z,29.43
2023-06-19T14:59:00.990Z,29.54
2023-06-19T15:01:27.995Z,29.18
2023-06-19T15:03:54.743Z,29.09
2023-06-19T15:06:21.360Z,29.19
2023-06-19T15:08:47.896Z,29.36
2023-06-19T15:11:15.060Z,29.55
2023-06-19T15:13:41.540Z,29.42
2023-06-19T15:16:09.152Z,29.11
2023-06-19T15:18:35.865Z,29.26
2023-06-19T15:21:02.434Z,29.48
2023-06-19T15:23:28.858Z,29.51
2023-06-19T15:25:55.863Z,29.32
2023-06-19T15:28:22.309Z,29.61
2023-06-19T15:30:48.908Z,29.39
2023-06-19T15:33:17.785Z,29.23
2023-06-19T15:35:46.058Z,29.22
2023-06-19T15:38:12.544Z,29.29
2023-06-19T15:40:39.063Z,29.12
2023-06-19T15:43:05.889Z,29.18
2023-06-19T15:45:32.498Z,29.03
2023-06-19T15:47:59.039Z,28.67
2023-06-19T15:50:25.897Z,28.42
2023-06-19T15:52:52.656Z,28.42
2023-06-19T15:55:19.342Z,28.30
2023-06-19T15:57:45.871Z,28.07
2023-06-19T16:00:14.015Z,27.92
2023-06-19T16:02:48.520Z,28.09
2023-06-19T16:05:16.424Z,28.25
2023-06-19T16:07:43.328Z,28.01
2023-06-19T16:10:09.992Z,27.79
2023-06-19T16:12:36.486Z,27.64
2023-06-19T16:15:03.519Z,27.66
2023-06-19T16:17:30.053Z,27.73
2023-06-19T16:19:56.600Z,27.90
2023-06-19T16:22:23.115Z,28.07
2023-06-19T16:24:49.593Z,28.31
2023-06-19T16:27:16.095Z,28.40
2023-06-19T16:29:42.641Z,28.30
2023-06-19T16:32:10.758Z,28.37
2023-06-19T16:34:38.101Z,27.77
2023-06-19T16:37:04.885Z,27.50
2023-06-19T16:39:31.414Z,27.52
2023-06-19T16:41:57.828Z,27.47
2023-06-19T16:44:24.304Z,27.34
2023-06-19T16:46:50.823Z,27.45
2023-06-19T16:49:18.549Z,27.53
2023-06-19T16:51:45.357Z,27.52
2023-06-19T16:54:11.822Z,27.47
2023-06-19T16:56:38.913Z,27.40
2023-06-19T16:59:07.991Z,27.35
2023-06-19T17:01:35.159Z,27.37
2023-06-19T17:04:01.794Z,27.19
2023-06-19T17:06:28.301Z,27.10
2023-06-19T17:08:54.805Z,27.10
2023-06-19T17:11:21.443Z,26.97
2023-06-19T17:13:48.107Z,26.99
2023-06-19T17:16:14.662Z,26.82
2023-06-19T17:18:41.126Z,26.98
2023-06-19T17:21:07.600Z,27.02
2023-06-19T17:23:34.010Z,26.92
2023-06-19T17:26:00.432Z,27.00
2023-06-19T17:28:26.955Z,26.97
2023-06-19T17:30:53.519Z,26.87
2023-06-19T17:33:20.094Z,26.73
2023-06-19T17:35:46.674Z,26.61
2023-06-19T17:38:13.233Z,26.60
2023-06-19T17:40:39.762Z,26.60
2023-06-19T17:43:06.220Z,26.50
2023-06-19T17:45:32.735Z,26.36
2023-06-19T17:47:59.246Z,26.31
2023-06-19T17:50:26.296Z,26.32
2023-06-19T17:52:52.995Z,26.26
2023-06-19T17:55:19.453Z,26.21
2023-06-19T17:57:45.957Z,26.22
2023-06-19T18:00:13.069Z,26.15
2023-06-19T18:02:40.199Z,26.12
2023-06-19T18:05:07.062Z,26.15
2023-06-19T18:07:33.680Z,26.16
2023-06-19T18:10:00.258Z,26.15
2023-06-19T18:12:26.954Z,25.84
2023-06-19T18:14:53.611Z,25.37
2023-06-19T18:17:20.224Z,24.97
2023-06-19T18:19:46.927Z,24.84
2023-06-19T18:22:13.594Z,24.63
2023-06-19T18:24:40.132Z,24.61
2023-06-19T18:27:07.617Z,24.69
2023-06-19T18:29:35.420Z,24.60
2023-06-19T18:32:01.951Z,24.45
2023-06-19T18:34:28.367Z,24.24
2023-06-19T18:36:54.916Z,23.77
2023-06-19T18:39:21.477Z,23.52
2023-06-19T18:41:47.953Z,23.36
2023-06-19T18:44:14.443Z,23.25
2023-06-19T18:46:41.768Z,23.26
2023-06-19T18:49:08.291Z,23.29
2023-06-19T18:51:34.725Z,23.20
2023-06-19T18:54:01.137Z,23.07
2023-06-19T18:56:27.723Z,22.98
2023-06-19T18:58:54.219Z,22.68
2023-06-19T19:01:20.738Z,22.50
2023-06-19T19:03:47.299Z,22.45
2023-06-19T19:06:18.230Z,22.30
2023-06-19T19:08:45.309Z,22.24
2023-06-19T19:11:11.834Z,22.26
2023-06-19T19:13:38.346Z,22.22
2023-06-19T19:16:05.067Z,22.18
2023-06-19T19:18:31.473Z,22.16
2023-06-19T19:20:57.939Z,22.09
2023-06-19T19:23:24.391Z,21.98
2023-06-19T19:25:50.849Z,21.94
2023-06-19T19:28:17.278Z,21.88
2023-06-19T19:30:45.547Z,21.81
2023-06-19T19:33:13.785Z,21.77
2023-06-19T19:35:40.345Z,21.68
2023-06-19T19:38:06.780Z,21.55
2023-06-19T19:40:33.269Z,21.46
2023-06-19T19:43:01.373Z,21.41
2023-06-19T19:45:28.352Z,21.23
2023-06-19T19:47:55.264Z,21.14
2023-06-19T19:50:22.683Z,21.03
2023-06-19T19:52:49.298Z,20.97
2023-06-19T19:55:15.782Z,20.92
2023-06-19T19:57:42.284Z,20.88
2023-06-19T20:00:09.605Z,20.82
2023-06-19T20:02:36.307Z,20.72
2023-06-19T20:05:02.908Z,20.71
2023-06-19T20:07:29.351Z,20.67
2023-06-19T20:09:55.921Z,20.61
2023-06-19T20:12:22.705Z,20.54
2023-06-19T20:14:49.662Z,20.46
2023-06-19T20:17:16.335Z,20.36
2023-06-19T20:19:42.767Z,20.28
2023-06-19T20:22:09.185Z,20.23
2023-06-19T20:24:36.514Z,20.18
2023-06-19T20:27:03.440Z,20.12
2023-06-19T20:29:29.995Z,20.07
2023-06-19T20:31:56.650Z,20.01
2023-06-19T20:34:23.290Z,19.95
2023-06-19T20:36:49.713Z,19.91
2023-06-19T20:39:16.230Z,19.84
2023-06-19T20:41:50.260Z,19.86
2023-06-19T20:44:18.366Z,19.78
2023-06-19T20:46:45.279Z,19.73
2023-06-19T20:49:11.999Z,19.66
2023-06-19T20:51:38.525Z,19.58
2023-06-19T20:54:05.534Z,19.52
2023-06-19T20:56:32.120Z,19.52
2023-06-19T20:58:58.653Z,19.58
2023-06-19T21:01:26.171Z,19.67
2023-06-19T21:03:52.714Z,19.68
2023-06-19T21:06:19.304Z,19.53
2023-06-19T21:08:45.936Z,19.54
2023-06-19T21:11:12.388Z,19.54
2023-06-19T21:13:39.671Z,19.52
2023-06-19T21:16:06.189Z,19.49
2023-06-19T21:18:32.626Z,19.44
2023-06-19T21:20:59.330Z,19.41
2023-06-19T21:23:25.812Z,19.32
2023-06-19T21:25:52.288Z,19.28
2023-06-19T21:28:18.833Z,19.27
2023-06-19T21:30:45.379Z,19.28
2023-06-19T21:33:11.884Z,19.33
2023-06-19T21:35:38.354Z,19.33
2023-06-19T21:38:04.800Z,19.34
2023-06-19T21:40:31.264Z,19.39
2023-06-19T21:42:57.682Z,19.43
2023-06-19T21:45:25.213Z,19.42
2023-06-19T21:47:51.993Z,19.41
2023-06-19T21:50:20.413Z,19.41
2023-06-19T21:52:46.854Z,19.34
2023-06-19T21:55:13.836Z,19.35
2023-06-19T21:57:57.748Z,19.27
2023-06-19T22:00:27.804Z,19.22
2023-06-19T22:02:55.345Z,19.22
2023-06-19T22:05:21.975Z,19.22
2023-06-19T22:07:48.789Z,19.23
2023-06-19T22:10:15.438Z,19.17
2023-06-19T22:12:41.915Z,19.15
2023-06-19T22:15:09.556Z,19.12
2023-06-19T22:17:36.737Z,19.10
2023-06-19T22:20:04.431Z,19.15
2023-06-19T22:22:30.927Z,19.19
2023-06-19T22:24:57.434Z,19.11
2023-06-19T22:27:23.968Z,19.14
2023-06-19T22:29:50.609Z,19.14
2023-06-19T22:32:17.166Z,19.18
2023-06-19T22:34:43.666Z,19.17
2023-06-19T22:37:10.106Z,19.18
2023-06-19T22:39:37.281Z,19.22
2023-06-19T22:42:04.345Z,19.20
2023-06-19T22:44:30.768Z,19.19
2023-06-19T22:46:57.280Z,19.18
2023-06-19T22:49:26.346Z,19.13
2023-06-19T22:51:52.933Z,19.14
2023-06-19T22:54:20.761Z,19.14
2023-06-19T22:56:47.237Z,19.08
2023-06-19T22:59:13.705Z,19.01
2023-06-19T23:01:40.269Z,19.01
2023-06-19T23:04:07.814Z,18.96
2023-06-19T23:06:42.920Z,18.98
2023-06-19T23:09:11.566Z,18.94
2023-06-19T23:11:39.353Z,18.94
2023-06-19T23:14:06.589Z,18.92
2023-06-19T23:16:33.381Z,18.94
2023-06-19T23:18:59.877Z,18.96
2023-06-19T23:21:26.593Z,18.91
2023-06-19T23:23:53.082Z,18.83
2023-06-19T23:26:24.504Z,18.76
2023-06-19T23:28:52.144Z,18.73
2023-06-19T23:31:24.522Z,18.76
2023-06-19T23:33:52.332Z,18.75
2023-06-19T23:36:19.512Z,18.77
2023-06-19T23:38:46.101Z,18.79
2023-06-19T23:41:12.872Z,18.83
2023-06-19T23:43:39.434Z,18.83
2023-06-19T23:46:07.323Z,18.85
2023-06-19T23:48:34.235Z,18.86
2023-06-19T23:51:00.725Z,18.89
2023-06-19T23:53:27.132Z,18.96
2023-06-19T23:55:54.198Z,18.97
2023-06-19T23:58:21.603Z,18.97
